createdAt,value
2022-11-24T00:02:29.782Z,90.40
2022-11-24T00:05:31.970Z,90.30
2022-11-24T00:08:35.363Z,90.30
2022-11-24T00:11:38.010Z,90.30
2022-11-24T00:14:40.325Z,90.20
2022-11-24T00:17:42.448Z,90.20
2022-11-24T00:20:52.505Z,90.20
2022-11-24T00:23:55.051Z,90.20
2022-11-24T00:26:57.208Z,90.20
2022-11-24T00:29:59.711Z,90.10
2022-11-24T00:33:01.919Z,90.00
2022-11-24T00:36:04.295Z,90.10
2022-11-24T00:39:08.930Z,90.00
2022-11-24T00:42:11.156Z,90.00
2022-11-24T00:45:14.344Z,90.00
2022-11-24T00:48:16.729Z,89.90
2022-11-24T00:51:20.567Z,89.70
2022-11-24T00:54:23.022Z,89.70
2022-11-24T00:57:25.414Z,89.60
2022-11-24T01:00:27.638Z,89.50
2022-11-24T01:03:29.800Z,89.40
2022-11-24T01:06:32.892Z,89.40
2022-11-24T01:09:35.213Z,89.40
2022-11-24T01:12:37.383Z,89.30
2022-11-24T01:15:40.147Z,89.30
2022-11-24T01:18:42.442Z,89.20
2022-11-24T01:21:44.738Z,89.30
2022-11-24T01:24:47.018Z,89.00
2022-11-24T01:27:49.218Z,89.10
2022-11-24T01:31:02.212Z,89.10
2022-11-24T01:34:04.415Z,88.90
2022-11-24T01:37:06.559Z,88.80
2022-11-24T01:40:09.564Z,88.70
2022-11-24T01:43:22.539Z,88.80
2022-11-24T01:46:43.444Z,88.80
2022-11-24T01:49:49.130Z,88.70
2022-11-24T01:52:55.343Z,88.70
2022-11-24T01:55:58.468Z,88.70
2022-11-24T01:59:02.800Z,88.60
2022-11-24T02:02:05.537Z,88.50
2022-11-24T02:05:15.957Z,88.40
2022-11-24T02:08:35.624Z,88.30
2022-11-24T02:11:40.556Z,88.30
2022-11-24T02:14:44.813Z,88.30
2022-11-24T02:17:47.184Z,88.30
2022-11-24T02:20:49.526Z,88.30
2022-11-24T02:24:02.339Z,88.00
2022-11-24T02:27:04.664Z,88.10
2022-11-24T02:30:07.261Z,87.90
2022-11-24T02:33:11.379Z,87.80
2022-11-24T02:36:13.573Z,87.70
2022-11-24T02:39:16.368Z,87.70
2022-11-24T02:42:18.612Z,87.60
2022-11-24T02:45:21.915Z,87.40
2022-11-24T02:48:24.366Z,87.40
2022-11-24T02:51:26.585Z,87.40
2022-11-24T02:54:29.001Z,87.30
2022-11-24T02:57:31.376Z,87.10
2022-11-24T03:00:33.611Z,87.00
2022-11-24T03:03:35.915Z,87.00
2022-11-24T03:06:38.322Z,86.90
2022-11-24T03:09:40.530Z,86.90
2022-11-24T03:12:42.712Z,86.80
2022-11-24T03:15:44.955Z,86.60
2022-11-24T03:18:48.385Z,86.60
2022-11-24T03:21:50.549Z,86.50
2022-11-24T03:24:53.777Z,86.50
2022-11-24T03:27:58.227Z,86.40
2022-11-24T03:31:00.420Z,86.40
2022-11-24T03:34:02.675Z,86.20
2022-11-24T03:37:04.888Z,86.10
2022-11-24T03:40:07.596Z,86.10
2022-11-24T03:43:09.722Z,86.00
2022-11-24T03:46:12.858Z,86.10
2022-11-24T03:49:15.068Z,86.10
2022-11-24T03:52:17.346Z,86.00
2022-11-24T03:55:19.479Z,86.00
2022-11-24T03:58:21.679Z,86.00
2022-11-24T04:01:23.819Z,85.90
2022-11-24T04:04:26.073Z,85.80
2022-11-24T04:07:28.318Z,85.80
2022-11-24T04:10:32.185Z,85.70
2022-11-24T04:13:34.420Z,85.80
2022-11-24T04:16:37.405Z,85.80
2022-11-24T04:19:39.705Z,85.60
2022-11-24T04:22:42.564Z,85.70
2022-11-24T04:25:48.024Z,85.60
2022-11-24T04:28:50.257Z,85.50
2022-11-24T04:31:52.455Z,85.60
2022-11-24T04:34:54.626Z,85.60
2022-11-24T04:37:56.778Z,85.60
2022-11-24T04:41:05.722Z,85.40
2022-11-24T04:44:07.855Z,85.40
2022-11-24T04:47:17.096Z,85.30
2022-11-24T04:50:19.316Z,85.30
2022-11-24T04:53:22.120Z,85.20
2022-11-24T04:56:24.301Z,85.10
2022-11-24T04:59:26.513Z,85.10
2022-11-24T05:02:28.705Z,85.00
2022-11-24T05:05:31.015Z,85.00
2022-11-24T05:08:33.231Z,84.80
2022-11-24T05:11:35.546Z,84.90
2022-11-24T05:14:37.748Z,84.70
2022-11-24T05:17:40.212Z,85.40
2022-11-24T05:20:44.826Z,84.60
2022-11-24T05:23:46.994Z,84.50
2022-11-24T05:26:49.090Z,84.40
2022-11-24T05:29:51.330Z,84.30
2022-11-24T05:32:53.625Z,84.40
2022-11-24T05:35:59.828Z,84.20
2022-11-24T05:39:01.989Z,84.10
2022-11-24T05:42:24.898Z,84.20
2022-11-24T05:45:27.197Z,84.10
2022-11-24T05:48:29.559Z,83.80
2022-11-24T05:51:33.457Z,83.80
2022-11-24T05:54:35.924Z,83.70
2022-11-24T05:57:38.509Z,83.70
2022-11-24T06:00:41.072Z,83.60
2022-11-24T06:03:43.210Z,83.60
2022-11-24T06:06:46.892Z,83.50
2022-11-24T06:09:49.132Z,83.40
2022-11-24T06:12:51.522Z,83.40
2022-11-24T06:15:53.708Z,83.30
2022-11-24T06:18:56.028Z,83.10
2022-11-24T06:21:58.240Z,83.10
2022-11-24T06:25:00.348Z,83.00
2022-11-24T06:28:05.241Z,82.90
2022-11-24T06:31:07.416Z,82.70
2022-11-24T06:34:11.806Z,82.80
2022-11-24T06:37:14.158Z,82.60
2022-11-24T06:40:17.078Z,82.50
2022-11-24T06:43:19.287Z,82.50
2022-11-24T06:46:21.603Z,82.50
2022-11-24T06:49:23.891Z,82.50
2022-11-24T06:52:26.136Z,82.40
2022-11-24T06:55:28.304Z,82.40
2022-11-24T06:58:30.501Z,82.30
2022-11-24T07:01:32.719Z,82.40
2022-11-24T07:04:35.113Z,82.40
2022-11-24T07:07:37.525Z,82.40
2022-11-24T07:10:40.633Z,82.30
2022-11-24T07:13:44.014Z,82.20
2022-11-24T07:16:46.234Z,82.30
2022-11-24T07:19:48.490Z,82.30
2022-11-24T07:22:54.593Z,82.30
2022-11-24T07:25:56.839Z,82.20
2022-11-24T07:28:59.056Z,82.30
2022-11-24T07:32:05.461Z,82.30
2022-11-24T07:35:08.533Z,82.20
2022-11-24T07:38:10.705Z,82.30
2022-11-24T07:41:14.969Z,82.30
2022-11-24T07:44:17.187Z,82.30
2022-11-24T07:47:19.353Z,82.40
2022-11-24T07:50:21.482Z,82.50
2022-11-24T07:53:23.594Z,82.50
2022-11-24T07:56:25.859Z,82.60
2022-11-24T07:59:28.024Z,82.60
2022-11-24T08:02:30.199Z,82.70
2022-11-24T08:05:32.334Z,82.70
2022-11-24T08:08:34.523Z,82.90
2022-11-24T08:11:36.901Z,83.00
2022-11-24T08:14:39.089Z,83.10
2022-11-24T08:17:41.245Z,83.20
2022-11-24T08:20:43.328Z,83.30
2022-11-24T08:23:45.709Z,83.40
2022-11-24T08:26:47.911Z,83.60
2022-11-24T08:29:50.147Z,83.60
2022-11-24T08:32:52.279Z,83.80
2022-11-24T08:35:54.402Z,84.00
2022-11-24T08:38:58.704Z,84.00
2022-11-24T08:42:00.909Z,84.20
2022-11-24T08:45:19.297Z,84.20
2022-11-24T08:48:22.829Z,84.30
2022-11-24T08:55:09.562Z,84.60
2022-11-24T08:58:11.728Z,84.90
2022-11-24T09:01:17.077Z,84.90
2022-11-24T09:04:19.480Z,85.00
2022-11-24T09:07:21.928Z,85.20
2022-11-24T09:10:24.152Z,85.30
2022-11-24T09:13:26.390Z,85.80
2022-11-24T09:16:29.259Z,85.60
2022-11-24T09:19:31.723Z,85.60
2022-11-24T09:22:34.192Z,85.70
2022-11-24T09:25:36.407Z,85.90
2022-11-24T09:28:38.628Z,86.00
2022-11-24T09:31:40.889Z,86.10
2022-11-24T09:34:43.045Z,86.30
2022-11-24T09:37:45.856Z,86.40
2022-11-24T09:45:09.373Z,86.50
2022-11-24T09:48:35.839Z,86.70
2022-11-24T09:51:39.393Z,86.80
2022-11-24T09:54:57.698Z,86.90
2022-11-24T09:58:14.883Z,87.00
2022-11-24T10:01:28.748Z,87.10
2022-11-24T10:04:43.279Z,87.30
2022-11-24T10:08:08.136Z,87.40
2022-11-24T10:11:16.179Z,87.50
2022-11-24T10:14:26.418Z,87.60
2022-11-24T10:17:34.397Z,87.70
2022-11-24T10:20:48.564Z,87.70
2022-11-24T10:23:50.731Z,87.80
2022-11-24T10:27:09.818Z,87.90
2022-11-24T10:30:19.339Z,88.00
2022-11-24T10:33:30.570Z,88.10
2022-11-24T10:36:40.375Z,88.10
2022-11-24T10:39:51.524Z,88.20
2022-11-24T10:42:55.910Z,88.20
2022-11-24T10:46:19.331Z,88.30
2022-11-24T10:49:29.551Z,88.40
2022-11-24T10:52:35.474Z,88.50
2022-11-24T10:55:56.131Z,88.60
2022-11-24T10:59:32.278Z,88.60
2022-11-24T11:02:36.963Z,88.70
2022-11-24T11:05:44.455Z,88.80
2022-11-24T11:08:46.753Z,88.90
2022-11-24T11:11:52.771Z,89.00
2022-11-24T11:14:54.911Z,89.10
2022-11-24T11:18:01.606Z,89.20
2022-11-24T11:21:15.397Z,89.20
2022-11-24T11:24:18.870Z,89.30
2022-11-24T11:27:26.588Z,89.30
2022-11-24T11:34:06.194Z,89.40
2022-11-24T11:37:14.661Z,89.50
2022-11-24T11:40:19.794Z,89.60
2022-11-24T11:43:27.407Z,89.60
2022-11-24T11:46:32.761Z,89.70
2022-11-24T11:49:38.336Z,89.70
2022-11-24T11:53:07.509Z,89.80
2022-11-24T11:56:26.844Z,89.80
2022-11-24T11:59:52.034Z,89.80
2022-11-24T12:03:11.313Z,89.80
2022-11-24T12:06:42.787Z,89.90
2022-11-24T12:10:13.830Z,90.00
2022-11-24T12:13:53.497Z,90.00
2022-11-24T12:17:05.488Z,90.00
2022-11-24T12:20:36.788Z,90.00
2022-11-24T12:24:04.791Z,90.00
2022-11-24T12:27:38.431Z,90.10
2022-11-24T12:31:07.849Z,90.40
2022-11-24T12:34:26.871Z,90.10
2022-11-24T12:38:10.248Z,90.10
2022-11-24T12:41:42.183Z,90.10
2022-11-24T12:45:08.540Z,90.10
2022-11-24T12:48:18.840Z,90.20
2022-11-24T12:51:23.056Z,90.20
2022-11-24T12:54:26.089Z,90.20
2022-11-24T12:57:34.989Z,90.20
2022-11-24T13:01:13.101Z,90.30
2022-11-24T13:04:32.800Z,90.30
2022-11-24T13:07:57.977Z,90.30
2022-11-24T13:11:21.818Z,90.40
2022-11-24T13:14:31.818Z,90.40
2022-11-24T13:17:52.394Z,90.40
2022-11-24T13:20:56.947Z,90.50
2022-11-24T13:24:02.220Z,90.50
2022-11-24T13:27:16.360Z,90.50
2022-11-24T13:30:33.651Z,90.50
2022-11-24T13:33:36.224Z,90.50
2022-11-24T13:36:53.729Z,90.50
2022-11-24T13:40:03.300Z,90.50
2022-11-24T13:43:05.511Z,90.60
2022-11-24T13:46:10.340Z,90.60
2022-11-24T13:49:14.603Z,90.70
2022-11-24T13:52:41.061Z,90.60
2022-11-24T13:56:16.441Z,90.70
2022-11-24T13:59:30.822Z,90.70
2022-11-24T14:02:34.840Z,91.00
2022-11-24T14:05:40.169Z,90.70
2022-11-24T14:08:45.617Z,90.80
2022-11-24T14:12:00.075Z,90.70
2022-11-24T14:15:23.586Z,90.80
2022-11-24T14:18:25.890Z,90.80
2022-11-24T14:21:42.764Z,90.80
2022-11-24T14:24:51.096Z,90.80
2022-11-24T14:27:53.529Z,90.80
2022-11-24T14:31:20.873Z,90.80
2022-11-24T14:34:25.690Z,90.80
2022-11-24T14:37:27.914Z,91.20
2022-11-24T14:40:50.765Z,90.80
2022-11-24T14:44:21.752Z,91.20
2022-11-24T14:47:36.532Z,90.90
2022-11-24T14:50:38.763Z,90.90
2022-11-24T14:53:50.961Z,90.90
2022-11-24T14:57:01.753Z,91.00
2022-11-24T15:00:41.919Z,90.90
2022-11-24T15:03:44.123Z,90.90
2022-11-24T15:06:49.014Z,90.90
2022-11-24T15:09:58.239Z,91.00
2022-11-24T15:13:02.776Z,91.00
2022-11-24T15:16:20.734Z,90.90
2022-11-24T15:19:27.210Z,91.00
2022-11-24T15:22:29.310Z,91.00
2022-11-24T15:25:34.022Z,91.00
2022-11-24T15:28:36.446Z,91.00
2022-11-24T15:31:40.048Z,91.00
2022-11-24T15:34:44.228Z,91.00
2022-11-24T15:37:46.386Z,91.00
2022-11-24T15:40:50.878Z,91.00
2022-11-24T15:43:59.021Z,91.00
2022-11-24T15:47:01.240Z,91.00
2022-11-24T15:50:03.950Z,91.10
2022-11-24T15:53:06.728Z,91.00
2022-11-24T15:56:15.263Z,91.00
2022-11-24T15:59:20.657Z,91.00
2022-11-24T16:02:23.718Z,91.10
2022-11-24T16:05:26.015Z,91.00
2022-11-24T16:08:28.244Z,91.00
2022-11-24T16:11:30.411Z,91.00
2022-11-24T16:14:32.714Z,91.00
2022-11-24T16:17:35.062Z,91.00
2022-11-24T16:20:37.288Z,91.20
2022-11-24T16:23:39.651Z,91.00
2022-11-24T16:26:41.760Z,91.00
2022-11-24T16:29:43.967Z,91.00
2022-11-24T16:32:51.946Z,91.00
2022-11-24T16:35:58.795Z,91.00
2022-11-24T16:39:01.044Z,91.00
2022-11-24T16:42:12.671Z,91.00
2022-11-24T16:45:16.028Z,91.00
2022-11-24T16:48:18.225Z,91.00
2022-11-24T16:51:35.385Z,90.90
2022-11-24T16:54:38.788Z,91.00
2022-11-24T16:57:49.457Z,90.90
2022-11-24T17:00:55.783Z,90.90
2022-11-24T17:03:58.266Z,90.90
2022-11-24T17:07:01.419Z,90.90
2022-11-24T17:10:04.046Z,90.90
2022-11-24T17:13:07.229Z,90.80
2022-11-24T17:16:18.644Z,90.80
2022-11-24T17:19:20.989Z,90.80
2022-11-24T17:22:24.185Z,90.70
2022-11-24T17:25:32.558Z,90.70
2022-11-24T17:28:35.805Z,90.70
2022-11-24T17:31:40.519Z,90.60
2022-11-24T17:34:59.550Z,90.60
2022-11-24T17:38:01.860Z,90.60
2022-11-24T17:41:05.180Z,90.60
2022-11-24T17:44:08.818Z,90.60
2022-11-24T17:47:10.971Z,90.60
2022-11-24T17:50:13.355Z,90.60
2022-11-24T17:53:15.610Z,90.50
2022-11-24T17:56:21.936Z,90.50
2022-11-24T17:59:24.208Z,90.50
2022-11-24T18:02:26.528Z,90.40
2022-11-24T18:05:28.786Z,90.40
2022-11-24T18:08:39.824Z,90.30
2022-11-24T18:11:42.019Z,90.60
2022-11-24T18:14:44.836Z,90.30
2022-11-24T18:17:47.005Z,90.30
2022-11-24T18:20:56.427Z,90.20
2022-11-24T18:23:58.560Z,90.20
2022-11-24T18:27:00.778Z,90.20
2022-11-24T18:30:03.952Z,90.10
2022-11-24T18:33:06.194Z,90.10
2022-11-24T18:36:10.341Z,90.10
2022-11-24T18:39:17.850Z,90.10
2022-11-24T18:42:21.014Z,90.10
2022-11-24T18:45:23.206Z,90.10
2022-11-24T18:48:26.481Z,90.00
2022-11-24T18:51:28.714Z,90.00
2022-11-24T18:54:30.911Z,90.00
2022-11-24T18:57:33.165Z,90.00
2022-11-24T19:00:35.292Z,89.90
2022-11-24T19:03:47.809Z,89.90
2022-11-24T19:06:50.794Z,89.80
2022-11-24T19:09:52.958Z,89.80
2022-11-24T19:12:56.211Z,89.70
2022-11-24T19:16:00.520Z,89.70
2022-11-24T19:19:03.125Z,89.70
2022-11-24T19:22:05.640Z,89.70
2022-11-24T19:25:08.334Z,89.70
2022-11-24T19:28:12.768Z,89.70
2022-11-24T19:31:17.353Z,89.70
2022-11-24T19:34:19.680Z,89.70
2022-11-24T19:37:23.607Z,89.70
2022-11-24T19:40:26.235Z,89.60
2022-11-24T19:43:28.707Z,89.60
2022-11-24T19:46:30.940Z,89.60
2022-11-24T19:49:33.070Z,89.60
2022-11-24T19:52:35.228Z,89.50
2022-11-24T19:55:37.374Z,89.50
2022-11-24T19:58:40.316Z,89.50
2022-11-24T20:01:42.766Z,89.50
2022-11-24T20:04:45.163Z,89.50
2022-11-24T20:07:47.426Z,89.40
2022-11-24T20:10:49.650Z,89.30
2022-11-24T20:13:52.091Z,89.30
2022-11-24T20:16:54.324Z,89.20
2022-11-24T20:19:57.627Z,89.10
2022-11-24T20:23:00.758Z,89.10
2022-11-24T20:26:08.143Z,88.90
2022-11-24T20:29:13.155Z,89.00
2022-11-24T20:32:19.577Z,89.00
2022-11-24T20:35:21.679Z,89.00
2022-11-24T20:38:23.950Z,88.90
2022-11-24T20:41:29.172Z,88.90
2022-11-24T20:44:31.570Z,88.90
2022-11-24T20:47:33.781Z,88.90
2022-11-24T20:50:38.151Z,88.90
2022-11-24T20:53:40.699Z,89.00
2022-11-24T20:56:44.284Z,89.00
2022-11-24T20:59:46.532Z,89.00
2022-11-24T21:02:48.957Z,88.90
2022-11-24T21:05:55.820Z,89.00
2022-11-24T21:09:03.419Z,89.00
2022-11-24T21:12:06.537Z,89.00
2022-11-24T21:15:09.354Z,89.00
2022-11-24T21:18:11.934Z,89.00
2022-11-24T21:21:14.725Z,89.00
2022-11-24T21:24:18.507Z,89.70
2022-11-24T21:27:20.676Z,89.00
2022-11-24T21:30:22.970Z,89.10
2022-11-24T21:33:25.087Z,89.00
2022-11-24T21:36:27.254Z,89.10
2022-11-24T21:39:29.428Z,89.00
2022-11-24T21:42:31.624Z,89.00
2022-11-24T21:45:34.858Z,88.90
2022-11-24T21:48:38.693Z,88.90
2022-11-24T21:51:40.828Z,88.90
2022-11-24T21:54:43.024Z,88.90
2022-11-24T21:57:45.396Z,88.90
2022-11-24T22:00:47.626Z,88.80
2022-11-24T22:03:50.321Z,88.80
2022-11-24T22:06:55.649Z,88.90
2022-11-24T22:09:57.977Z,88.80
2022-11-24T22:13:00.134Z,88.80
2022-11-24T22:16:07.444Z,88.80
2022-11-24T22:19:10.261Z,88.80
2022-11-24T22:22:12.407Z,88.80
2022-11-24T22:25:14.593Z,88.80
2022-11-24T22:28:16.729Z,88.90
2022-11-24T22:31:23.944Z,88.90
2022-11-24T22:34:26.192Z,89.60
2022-11-24T22:37:28.358Z,88.90
2022-11-24T22:40:30.606Z,88.80
2022-11-24T22:43:34.237Z,88.80
2022-11-24T22:46:36.464Z,88.90
2022-11-24T22:49:38.645Z,88.80
2022-11-24T22:52:40.886Z,88.80
2022-11-24T22:55:43.098Z,88.80
2022-11-24T22:58:45.368Z,88.90
2022-11-24T23:01:47.595Z,88.80
2022-11-24T23:04:49.776Z,88.90
2022-11-24T23:07:52.135Z,88.90
2022-11-24T23:11:02.607Z,88.80
2022-11-24T23:14:12.144Z,88.80
2022-11-24T23:17:14.283Z,88.90
2022-11-24T23:20:16.557Z,88.80
2022-11-24T23:23:18.783Z,88.80
2022-11-24T23:26:29.899Z,88.70
2022-11-24T23:29:32.159Z,88.70
2022-11-24T23:32:34.364Z,88.70
2022-11-24T23:35:36.536Z,88.70
2022-11-24T23:38:39.299Z,88.70
2022-11-24T23:41:41.674Z,88.70
2022-11-24T23:44:43.860Z,88.60
2022-11-24T23:47:46.089Z,88.60
2022-11-24T23:50:48.234Z,88.70
2022-11-24T23:53:51.019Z,88.70
2022-11-24T23:56:53.284Z,88.70
2022-11-24T23:59:55.462Z,88.70
